KEYW/EYW METAR and TAF weather

Enter ICAO airport designator
Station Type Date Time Source
KEYW METAR 2020/07/08 21:53 UTC NOAA

KEYW 082153Z 25003KT 10SM FEW035 32/24 A2994 RMK AO2 SLP137 T03220239


Station Type Date Time Source
KEYW Decoded METAR 2020/07/08 21:53 UTC NOAA

KEY WEST INTERNATIONAL AIRPORT , FL, United States (KEYW) 24-33N 81-46W 5M
Jul 08, 2020 - 05:53 PM EDT / 2020.07.08 2153 UTC
Wind: from the WSW (250 degrees) at 3 MPH (3 KT):0
Visibility: 10 mile(s):0
Sky conditions: mostly clear
Temperature: 90.0 F (32.2 C)
Heat index: 100.2 F (37.9 C):1
Dew Point: 75.0 F (23.9 C)
Relative Humidity: 61%
Pressure (altimeter): 29.94 in. Hg (1013 hPa)
ob: KEYW 082153Z 25003KT 10SM FEW035 32/24 A2994 RMK AO2 SLP137 T03220239
cycle: 22

Station Type Date Time Source
KEYW TAF 2020/07/08 18:36 UTC NOAA

TAF KEYW 081735Z 0818/0918 13006KT P6SM VCSH SCT030 SCT045
FM082100 VRB04KT P6SM FEW025
FM090200 01004KT P6SM VCSH SCT025 SCT060
FM091400 06005KT P6SM FEW025

Example: see airport list